Terminal Aerodrome Forecast
Issued by NWS

Home | Current Version | Previous Version | Text Only | Print | Product List | Glossary On
Versions: 1 2 3 4 5 6 7 8 9 10 11 12 13 14
000
FTUS43 KIND 212320
TAFBMG
TAF
KBMG 212320Z 2200/2224 20004KT P6SM FEW050 SCT200
     FM221400 24008KT P6SM FEW250
      AMD LTD TO CLD VIS AND WIND 2201/2213=

USA.gov is the U.S. government's official web portal to all federal, state and local government web resources and services.